Time;durP1;ratioP1;P1;durP2;ratioP2;P2;SDS_P1;SDS_P2;PMS_P1;PMS_P2;Temp;Humidity;BMP_temperature;BMP_pressure;BME280_temperature;BME280_humidity;BME280_pressure;Samples;Min_cycle;Max_cycle;Signal;HPM_P1;HPM_P2
2023/11/19 00:01:47;;;;;;;5.75;2.92;;;;;;;;;;10520305;28;20008;-70
2023/11/19 00:06:47;;;;;;;6.30;3.63;;;;;;;;;;10519555;28;20294;-69
2023/11/19 00:11:47;;;;;;;4.88;2.90;;;;;;;;;;10529745;28;20014;-69
2023/11/19 00:16:47;;;;;;;5.78;3.65;;;;;;;;;;10509399;28;20126;-70
2023/11/19 00:21:50;;;;;;;3.53;2.85;;;;;;;;;;10521801;28;20251;-69
2023/11/19 00:26:50;;;;;;;3.63;3.33;;;;;;;;;;10525699;28;20011;-71
2023/11/19 00:31:50;;;;;;;4.63;3.50;;;;;;;;;;10528397;28;20050;-70
2023/11/19 00:36:51;;;;;;;3.83;3.40;;;;;;;;;;10531115;28;20214;-70
2023/11/19 00:41:51;;;;;;;5.00;3.65;;;;;;;;;;10526286;28;20390;-69
2023/11/19 00:46:51;;;;;;;4.80;3.20;;;;;;;;;;10527334;28;20023;-69
2023/11/19 00:51:51;;;;;;;4.47;3.40;;;;;;;;;;10523576;28;20012;-69
2023/11/19 00:56:52;;;;;;;7.60;3.38;;;;;;;;;;10527283;28;20024;-69
2023/11/19 01:01:53;;;;;;;4.30;3.63;;;;;;;;;;10522963;28;20023;-71
2023/11/19 01:06:54;;;;;;;4.13;3.30;;;;;;;;;;10518457;28;20040;-70
2023/11/19 01:11:54;;;;;;;6.35;4.20;;;;;;;;;;10529745;28;20081;-70
2023/11/19 01:16:55;;;;;;;3.80;3.08;;;;;;;;;;10521487;28;20035;-69
2023/11/19 01:21:55;;;;;;;4.97;3.28;;;;;;;;;;10524636;28;20029;-69
2023/11/19 01:26:57;;;;;;;3.67;2.97;;;;;;;;;;10527447;28;20046;-70
2023/11/19 01:31:57;;;;;;;4.55;3.22;;;;;;;;;;10511290;28;20310;-69
2023/11/19 01:36:58;;;;;;;3.65;3.03;;;;;;;;;;10516914;28;20159;-69
2023/11/19 01:41:58;;;;;;;7.70;2.90;;;;;;;;;;10520889;28;20396;-70
2023/11/19 01:46:59;;;;;;;5.43;3.38;;;;;;;;;;10499560;28;20035;-69
2023/11/19 01:51:59;;;;;;;4.47;2.60;;;;;;;;;;10528839;28;20119;-70
2023/11/19 01:57:00;;;;;;;9.57;3.17;;;;;;;;;;10522425;28;20024;-69
2023/11/19 02:02:01;;;;;;;3.33;2.78;;;;;;;;;;10522860;28;20077;-69
2023/11/19 02:07:01;;;;;;;4.20;2.88;;;;;;;;;;10520311;28;20021;-69
2023/11/19 02:12:02;;;;;;;4.32;2.67;;;;;;;;;;10528713;28;20024;-70
2023/11/19 02:17:02;;;;;;;3.60;3.25;;;;;;;;;;10517725;28;20039;-69
2023/11/19 02:22:02;;;;;;;9.83;2.90;;;;;;;;;;10512707;28;20156;-69
2023/11/19 02:27:09;;;;;;;4.05;3.17;;;;;;;;;;10522647;28;20206;-70
2023/11/19 02:32:10;;;;;;;3.95;2.80;;;;;;;;;;10517167;28;20054;-69
2023/11/19 02:37:10;;;;;;;3.42;2.70;;;;;;;;;;10517934;28;20048;-70
2023/11/19 02:42:11;;;;;;;5.30;3.33;;;;;;;;;;10519406;28;20062;-71
2023/11/19 02:47:11;;;;;;;4.87;3.40;;;;;;;;;;10520132;28;20218;-70
2023/11/19 02:52:12;;;;;;;4.07;2.53;;;;;;;;;;10516488;28;20024;-71
2023/11/19 02:57:13;;;;;;;2.83;2.37;;;;;;;;;;10528356;28;20318;-70
2023/11/19 03:02:15;;;;;;;5.38;3.05;;;;;;;;;;10518162;28;20268;-70
2023/11/19 03:07:17;;;;;;;4.05;3.03;;;;;;;;;;10513666;28;20074;-69
2023/11/19 03:12:17;;;;;;;3.58;2.63;;;;;;;;;;10521019;28;20310;-69
2023/11/19 03:17:18;;;;;;;4.13;2.45;;;;;;;;;;10513379;28;20020;-69
2023/11/19 03:22:19;;;;;;;4.68;3.15;;;;;;;;;;10513867;28;20020;-69
2023/11/19 03:27:19;;;;;;;4.50;2.72;;;;;;;;;;10521134;28;20083;-69
2023/11/19 03:32:19;;;;;;;5.53;2.80;;;;;;;;;;10524558;28;20276;-69
2023/11/19 03:37:20;;;;;;;10.07;3.22;;;;;;;;;;10518108;28;20020;-69
2023/11/19 03:42:23;;;;;;;6.53;3.80;;;;;;;;;;10513975;28;20032;-69
2023/11/19 03:47:23;;;;;;;5.07;3.28;;;;;;;;;;10512290;28;20254;-69
2023/11/19 03:52:24;;;;;;;2.83;2.43;;;;;;;;;;10524271;28;20362;-69
2023/11/19 03:57:24;;;;;;;3.53;2.42;;;;;;;;;;10516972;28;20087;-70
2023/11/19 04:02:27;;;;;;;5.68;3.20;;;;;;;;;;10530004;28;20028;-70
2023/11/19 04:07:27;;;;;;;4.40;3.05;;;;;;;;;;10519540;28;20357;-69
2023/11/19 04:12:28;;;;;;;4.50;2.53;;;;;;;;;;10508108;28;20017;-69
2023/11/19 04:17:28;;;;;;;5.43;3.23;;;;;;;;;;10529279;28;20237;-69
2023/11/19 04:22:28;;;;;;;5.83;3.00;;;;;;;;;;10520477;28;20254;-69
2023/11/19 04:27:29;;;;;;;6.65;2.80;;;;;;;;;;10516465;28;20018;-70
2023/11/19 04:32:30;;;;;;;5.25;2.92;;;;;;;;;;10518878;28;20021;-70
2023/11/19 04:37:30;;;;;;;5.80;2.80;;;;;;;;;;10511783;28;20019;-69
2023/11/19 04:42:31;;;;;;;3.92;2.40;;;;;;;;;;10513444;28;20029;-71
2023/11/19 04:47:32;;;;;;;4.90;3.22;;;;;;;;;;10531905;28;20089;-70
2023/11/19 04:52:32;;;;;;;10.23;3.08;;;;;;;;;;10523087;28;20073;-70
2023/11/19 04:57:33;;;;;;;2.22;2.03;;;;;;;;;;10526303;28;20176;-70
2023/11/19 05:02:34;;;;;;;3.72;2.47;;;;;;;;;;10525488;28;20059;-70
2023/11/19 05:07:34;;;;;;;5.22;3.08;;;;;;;;;;10521192;28;20031;-70
2023/11/19 05:12:34;;;;;;;6.63;3.55;;;;;;;;;;10529875;28;20019;-69
2023/11/19 05:17:37;;;;;;;4.78;2.45;;;;;;;;;;10517338;28;20019;-69
2023/11/19 05:22:37;;;;;;;3.20;2.53;;;;;;;;;;10529090;28;20127;-69
2023/11/19 05:27:37;;;;;;;6.32;2.45;;;;;;;;;;10525347;28;20307;-69
2023/11/19 05:32:37;;;;;;;4.53;2.95;;;;;;;;;;10530420;28;20032;-69
2023/11/19 05:37:38;;;;;;;3.10;2.35;;;;;;;;;;10525792;28;20050;-69
2023/11/19 05:42:38;;;;;;;4.63;3.03;;;;;;;;;;10521788;28;20070;-70
2023/11/19 05:47:38;;;;;;;3.67;2.70;;;;;;;;;;10510981;28;20020;-70
2023/11/19 05:52:38;;;;;;;4.07;2.47;;;;;;;;;;10530679;28;20027;-72
2023/11/19 05:57:40;;;;;;;5.25;3.28;;;;;;;;;;10514346;28;20069;-71
2023/11/19 06:02:40;;;;;;;9.02;3.42;;;;;;;;;;10529915;28;20016;-69
2023/11/19 06:07:41;;;;;;;5.90;3.10;;;;;;;;;;10521910;28;20066;-69
2023/11/19 06:12:41;;;;;;;6.78;3.58;;;;;;;;;;10524974;28;20277;-69
2023/11/19 06:17:41;;;;;;;4.32;3.08;;;;;;;;;;10517143;28;20260;-70
2023/11/19 06:22:43;;;;;;;5.68;3.85;;;;;;;;;;10519463;28;20012;-70
2023/11/19 06:27:43;;;;;;;5.32;3.28;;;;;;;;;;10546476;28;20245;-69
2023/11/19 06:32:44;;;;;;;5.40;3.53;;;;;;;;;;10518059;28;20108;-70
2023/11/19 06:37:44;;;;;;;6.05;3.88;;;;;;;;;;10516188;28;20315;-70
2023/11/19 06:42:44;;;;;;;4.63;2.73;;;;;;;;;;10512696;28;20065;-70
2023/11/19 06:47:44;;;;;;;9.48;3.10;;;;;;;;;;10516871;28;20254;-70
2023/11/19 06:52:45;;;;;;;5.22;3.38;;;;;;;;;;10522898;28;20070;-71
2023/11/19 06:57:46;;;;;;;3.70;3.00;;;;;;;;;;10523945;28;20222;-69
2023/11/19 07:02:46;;;;;;;5.25;3.67;;;;;;;;;;10521791;28;20008;-69
2023/11/19 07:07:46;;;;;;;4.40;2.97;;;;;;;;;;10525268;28;20012;-70
2023/11/19 07:12:47;;;;;;;4.13;2.67;;;;;;;;;;10517499;28;20330;-70
2023/11/19 07:17:48;;;;;;;6.18;3.85;;;;;;;;;;10533785;28;20005;-70
2023/11/19 07:22:48;;;;;;;5.82;3.35;;;;;;;;;;10519855;28;20257;-72
2023/11/19 07:27:49;;;;;;;5.68;3.67;;;;;;;;;;10505456;28;20341;-71
2023/11/19 07:32:49;;;;;;;9.05;4.00;;;;;;;;;;10517590;28;20157;-70
2023/11/19 07:37:50;;;;;;;5.72;3.70;;;;;;;;;;10513502;28;20041;-70
2023/11/19 07:42:50;;;;;;;6.88;3.72;;;;;;;;;;10514412;28;20019;-70
2023/11/19 07:47:51;;;;;;;5.37;3.40;;;;;;;;;;10520720;28;20342;-72
2023/11/19 07:52:51;;;;;;;7.45;3.85;;;;;;;;;;10522430;28;20038;-70
2023/11/19 07:57:51;;;;;;;5.85;3.03;;;;;;;;;;10514301;28;20024;-70
2023/11/19 08:02:51;;;;;;;4.53;3.00;;;;;;;;;;10512384;28;20036;-71
2023/11/19 08:07:52;;;;;;;5.70;4.07;;;;;;;;;;10517600;28;20097;-71
2023/11/19 08:12:53;;;;;;;4.38;3.22;;;;;;;;;;10519847;28;20028;-70
2023/11/19 08:17:53;;;;;;;5.68;2.92;;;;;;;;;;10519194;28;20016;-71
2023/11/19 08:22:53;;;;;;;6.70;3.10;;;;;;;;;;10522687;28;20016;-76
2023/11/19 08:27:54;;;;;;;5.33;3.63;;;;;;;;;;10529045;28;20032;-76
2023/11/19 08:32:54;;;;;;;4.80;3.42;;;;;;;;;;10519917;28;20107;-75
2023/11/19 08:37:55;;;;;;;5.18;2.47;;;;;;;;;;10518092;28;20012;-75
2023/11/19 08:42:55;;;;;;;7.05;2.95;;;;;;;;;;10521752;28;20207;-75
2023/11/19 08:47:56;;;;;;;4.88;3.10;;;;;;;;;;10526364;28;20222;-76
2023/11/19 08:52:57;;;;;;;5.60;3.22;;;;;;;;;;10526908;28;20020;-75
2023/11/19 08:57:58;;;;;;;6.07;3.33;;;;;;;;;;10526782;28;20042;-75
2023/11/19 09:02:59;;;;;;;5.97;3.05;;;;;;;;;;10519374;28;20266;-75
2023/11/19 09:07:59;;;;;;;4.45;2.63;;;;;;;;;;10515763;28;20020;-75
2023/11/19 09:12:59;;;;;;;6.82;3.60;;;;;;;;;;10500295;28;20325;-75
2023/11/19 09:17:59;;;;;;;4.95;2.45;;;;;;;;;;10526319;28;20298;-75
2023/11/19 09:23:00;;;;;;;4.38;3.25;;;;;;;;;;10520831;28;20036;-76
2023/11/19 09:28:00;;;;;;;5.13;2.97;;;;;;;;;;10518915;28;20020;-74
2023/11/19 09:33:01;;;;;;;4.82;3.00;;;;;;;;;;10515630;28;20040;-75
2023/11/19 09:38:01;;;;;;;6.57;3.20;;;;;;;;;;10524604;28;20016;-75
2023/11/19 09:43:02;;;;;;;6.18;4.18;;;;;;;;;;10522127;28;20016;-76
2023/11/19 09:48:02;;;;;;;5.30;3.13;;;;;;;;;;10514409;28;20142;-75
2023/11/19 09:53:02;;;;;;;6.13;3.67;;;;;;;;;;10527608;28;20035;-75
2023/11/19 09:58:03;;;;;;;6.80;2.95;;;;;;;;;;10525901;28;20087;-75
2023/11/19 10:03:05;;;;;;;4.30;3.13;;;;;;;;;;10531689;28;20028;-76
2023/11/19 10:08:05;;;;;;;3.30;2.53;;;;;;;;;;10524977;28;20164;-75
2023/11/19 10:13:08;;;;;;;5.13;2.58;;;;;;;;;;10533779;28;20014;-76
2023/11/19 10:18:08;;;;;;;4.05;2.80;;;;;;;;;;10521350;28;20012;-76
2023/11/19 10:23:09;;;;;;;2.08;1.65;;;;;;;;;;10530377;28;20016;-75
2023/11/19 10:28:09;;;;;;;3.75;1.58;;;;;;;;;;10520856;28;20209;-75
2023/11/19 10:33:20;;;;;;;2.75;1.52;;;;;;;;;;10517930;28;20143;-75
2023/11/19 10:38:22;;;;;;;3.33;1.80;;;;;;;;;;10524706;28;20317;-75
2023/11/19 10:43:22;;;;;;;2.10;1.42;;;;;;;;;;10531509;28;20014;-73
2023/11/19 10:48:25;;;;;;;2.90;1.85;;;;;;;;;;10523020;28;20024;-76
2023/11/19 10:53:26;;;;;;;3.88;1.95;;;;;;;;;;10527634;28;20244;-75
2023/11/19 10:58:28;;;;;;;10.00;2.33;;;;;;;;;;10513009;28;20078;-75
2023/11/19 11:03:31;;;;;;;2.33;1.33;;;;;;;;;;10519523;28;20032;-75
2023/11/19 11:08:33;;;;;;;4.30;1.77;;;;;;;;;;10515369;28;20020;-75
2023/11/19 11:13:34;;;;;;;2.17;1.40;;;;;;;;;;10517543;28;20097;-74
2023/11/19 11:18:35;;;;;;;6.32;1.35;;;;;;;;;;10490418;28;20526;-72
2023/11/19 11:23:54;;;;;;;5.43;1.60;;;;;;;;;;10517405;28;20039;-76
2023/11/19 11:28:56;;;;;;;2.13;1.80;;;;;;;;;;10522028;28;20374;-75
2023/11/19 11:34:02;;;;;;;1.90;1.42;;;;;;;;;;10518485;28;20039;-74
2023/11/19 11:39:07;;;;;;;2.58;1.77;;;;;;;;;;10522578;28;20047;-74
2023/11/19 11:44:08;;;;;;;4.80;2.55;;;;;;;;;;10519399;28;20263;-74
2023/11/19 11:49:10;;;;;;;11.68;3.38;;;;;;;;;;10512720;28;20061;-74
2023/11/19 11:54:10;;;;;;;5.50;3.03;;;;;;;;;;10516356;28;20183;-74
2023/11/19 11:59:20;;;;;;;4.85;2.83;;;;;;;;;;10503695;28;20028;-76
2023/11/19 12:04:20;;;;;;;4.80;2.42;;;;;;;;;;10512674;28;20055;-75
2023/11/19 12:09:21;;;;;;;4.07;2.80;;;;;;;;;;10519027;28;20047;-75
2023/11/19 12:14:41;;;;;;;5.15;2.97;;;;;;;;;;10519334;28;20050;-74
2023/11/19 12:19:41;;;;;;;4.57;3.17;;;;;;;;;;10497189;28;20289;-75
2023/11/19 12:24:42;;;;;;;5.13;3.03;;;;;;;;;;10513742;28;20054;-74
2023/11/19 12:29:44;;;;;;;3.83;3.07;;;;;;;;;;10515630;28;20032;-75
2023/11/19 12:34:44;;;;;;;8.38;3.55;;;;;;;;;;10509696;28;20047;-76
2023/11/19 12:39:45;;;;;;;6.18;2.83;;;;;;;;;;10522312;28;20384;-75
2023/11/19 12:44:56;;;;;;;3.70;2.42;;;;;;;;;;10521928;28;20032;-75
2023/11/19 12:49:59;;;;;;;6.00;3.15;;;;;;;;;;10517718;28;20110;-76
2023/11/19 12:55:00;;;;;;;5.75;3.50;;;;;;;;;;10515206;28;20027;-75
2023/11/19 13:00:00;;;;;;;6.63;3.70;;;;;;;;;;10522306;28;20038;-75
2023/11/19 13:05:19;;;;;;;4.20;2.95;;;;;;;;;;10513011;28;20288;-74
2023/11/19 13:10:19;;;;;;;9.43;3.67;;;;;;;;;;10512878;28;20066;-76
2023/11/19 13:15:24;;;;;;;4.65;2.97;;;;;;;;;;10526615;28;20192;-75
2023/11/19 13:20:24;;;;;;;5.55;3.40;;;;;;;;;;10521478;28;20254;-74
2023/11/19 13:25:25;;;;;;;5.50;3.28;;;;;;;;;;10507724;28;20016;-74
2023/11/19 13:30:26;;;;;;;4.97;2.95;;;;;;;;;;10526204;28;20293;-74
2023/11/19 13:35:27;;;;;;;5.22;3.17;;;;;;;;;;10524186;28;20443;-74
2023/11/19 13:40:28;;;;;;;12.88;3.72;;;;;;;;;;10527208;28;20080;-74
2023/11/19 13:45:28;;;;;;;7.33;4.20;;;;;;;;;;10524162;28;20198;-74
2023/11/19 13:50:29;;;;;;;6.72;4.30;;;;;;;;;;10525550;28;20322;-90
2023/11/19 13:55:29;;;;;;;4.53;3.13;;;;;;;;;;10510196;28;20090;-75
2023/11/19 14:00:29;;;;;;;6.30;3.58;;;;;;;;;;10520743;28;20354;-75
2023/11/19 14:05:29;;;;;;;6.50;3.90;;;;;;;;;;10518191;28;20121;-69
2023/11/19 14:10:29;;;;;;;5.78;3.17;;;;;;;;;;10516937;28;20214;-69
2023/11/19 14:15:30;;;;;;;7.65;3.72;;;;;;;;;;10520805;28;20069;-69
2023/11/19 14:20:30;;;;;;;5.60;3.42;;;;;;;;;;10517983;28;20565;-74
2023/11/19 14:25:30;;;;;;;8.53;3.73;;;;;;;;;;10526026;28;20022;-71
2023/11/19 14:30:31;;;;;;;9.43;4.25;;;;;;;;;;10522994;28;20576;-71
2023/11/19 14:35:32;;;;;;;11.10;3.42;;;;;;;;;;10519703;28;20040;-75
2023/11/19 14:40:32;;;;;;;7.15;3.65;;;;;;;;;;10510241;28;20008;-68
2023/11/19 14:45:33;;;;;;;6.80;3.80;;;;;;;;;;10521447;28;20087;-75
2023/11/19 14:50:33;;;;;;;8.35;3.53;;;;;;;;;;10520031;28;20363;-71
2023/11/19 14:55:33;;;;;;;7.78;4.05;;;;;;;;;;10521018;28;20138;-71
2023/11/19 15:00:33;;;;;;;8.43;5.18;;;;;;;;;;10522614;28;20073;-72
2023/11/19 15:05:34;;;;;;;7.00;5.00;;;;;;;;;;10520427;28;20020;-72
2023/11/19 15:10:34;;;;;;;8.17;4.47;;;;;;;;;;10518709;28;20050;-71
2023/11/19 15:15:34;;;;;;;9.38;5.00;;;;;;;;;;10519847;28;20020;-70
2023/11/19 15:20:36;;;;;;;8.75;4.30;;;;;;;;;;10517317;28;20024;-71
2023/11/19 15:25:36;;;;;;;8.20;4.72;;;;;;;;;;10517528;28;20020;-70
2023/11/19 15:30:36;;;;;;;6.55;4.47;;;;;;;;;;10519467;28;20020;-69
2023/11/19 15:35:37;;;;;;;13.52;9.15;;;;;;;;;;10517795;28;20035;-73
2023/11/19 15:40:37;;;;;;;10.20;5.85;;;;;;;;;;10513713;28;20030;-77
2023/11/19 15:45:39;;;;;;;18.07;12.90;;;;;;;;;;10516747;28;20047;-77
2023/11/19 15:50:39;;;;;;;13.52;6.85;;;;;;;;;;10512870;28;20024;-78
2023/11/19 15:55:39;;;;;;;242.75;218.10;;;;;;;;;;10523796;28;20020;-76
2023/11/19 16:00:45;;;;;;;551.70;492.13;;;;;;;;;;10512390;28;20195;-79
2023/11/19 16:05:46;;;;;;;738.30;454.17;;;;;;;;;;10517339;28;20207;-77
2023/11/19 16:10:46;;;;;;;57.33;53.33;;;;;;;;;;10519564;28;20059;-79
2023/11/19 16:15:47;;;;;;;729.40;567.87;;;;;;;;;;10517032;28;20289;-78
2023/11/19 16:20:47;;;;;;;272.00;90.37;;;;;;;;;;10518762;28;20259;-77
2023/11/19 16:25:47;;;;;;;481.00;293.20;;;;;;;;;;10516940;28;20052;-77
2023/11/19 16:30:48;;;;;;;711.05;339.75;;;;;;;;;;10513981;28;20055;-78
2023/11/19 16:35:48;;;;;;;608.15;344.33;;;;;;;;;;10515608;28;20236;-74
2023/11/19 16:40:51;;;;;;;607.30;143.50;;;;;;;;;;10517628;28;20009;-74
2023/11/19 16:45:51;;;;;;;599.50;123.57;;;;;;;;;;10524306;28;20538;-75
2023/11/19 16:50:51;;;;;;;662.10;203.90;;;;;;;;;;10527700;28;20138;-71
2023/11/19 16:55:51;;;;;;;436.20;135.87;;;;;;;;;;10527945;28;20024;-73
2023/11/19 17:00:52;;;;;;;717.35;468.23;;;;;;;;;;10515420;28;20024;-75
2023/11/19 17:05:53;;;;;;;655.20;201.10;;;;;;;;;;10522038;28;20055;-77
2023/11/19 17:10:54;;;;;;;677.33;295.03;;;;;;;;;;10523191;28;20413;-79
2023/11/19 17:15:55;;;;;;;733.35;438.05;;;;;;;;;;10519025;28;20024;-79
2023/11/19 17:20:58;;;;;;;576.13;222.13;;;;;;;;;;10518599;28;20036;-78
2023/11/19 17:25:58;;;;;;;481.00;158.50;;;;;;;;;;10518963;28;20232;-76
2023/11/19 17:30:59;;;;;;;656.92;543.33;;;;;;;;;;10524212;28;19908;-76
2023/11/19 17:36:00;;;;;;;811.13;538.47;;;;;;;;;;10501142;28;20257;-75
2023/11/19 17:41:02;;;;;;;753.58;427.73;;;;;;;;;;10520326;28;20094;-73
2023/11/19 17:46:05;;;;;;;499.00;153.60;;;;;;;;;;10521555;28;20032;-77
2023/11/19 17:51:08;;;;;;;545.50;101.00;;;;;;;;;;10517629;28;20035;-74
2023/11/19 17:56:09;;;;;;;;;;;;;;;;;;10525214;28;19920;-75
2023/11/19 18:01:10;;;;;;;18.93;10.07;;;;;;;;;;10511429;28;21003;-73
2023/11/19 18:06:19;;;;;;;92.65;57.80;;;;;;;;;;10510505;28;20028;-73
2023/11/19 18:11:21;;;;;;;248.80;128.65;;;;;;;;;;10520125;28;20027;-73
2023/11/19 18:16:23;;;;;;;20.23;9.75;;;;;;;;;;10510951;28;20036;-73
2023/11/19 18:21:23;;;;;;;618.22;304.65;;;;;;;;;;10517558;28;20267;-73
2023/11/19 18:26:24;;;;;;;434.20;397.63;;;;;;;;;;10513987;28;20024;-70
2023/11/19 18:31:24;;;;;;;668.90;307.20;;;;;;;;;;10518010;28;20249;-72
2023/11/19 18:36:26;;;;;;;17.45;10.57;;;;;;;;;;10513604;28;20482;-70
2023/11/19 18:41:26;;;;;;;15.07;8.00;;;;;;;;;;10513267;28;20527;-71
2023/11/19 18:46:27;;;;;;;17.50;8.27;;;;;;;;;;10517725;28;20102;-71
2023/11/19 18:51:27;;;;;;;9.50;5.38;;;;;;;;;;10512322;28;20025;-72
2023/11/19 18:56:27;;;;;;;8.40;5.20;;;;;;;;;;10506130;28;20039;-70
2023/11/19 19:01:30;;;;;;;13.07;5.37;;;;;;;;;;10504543;28;20300;-70
2023/11/19 19:06:31;;;;;;;10.98;5.80;;;;;;;;;;10505906;28;20294;-73
2023/11/19 19:11:32;;;;;;;10.80;5.20;;;;;;;;;;10520118;28;20034;-71
2023/11/19 19:16:33;;;;;;;16.52;5.78;;;;;;;;;;10491572;28;20044;-70
2023/11/19 19:21:33;;;;;;;18.55;8.55;;;;;;;;;;10509237;28;20017;-70
2023/11/19 19:26:34;;;;;;;18.87;8.77;;;;;;;;;;10511880;28;20028;-72
2023/11/19 19:31:34;;;;;;;25.10;10.15;;;;;;;;;;10509925;28;20016;-71
2023/11/19 19:36:35;;;;;;;23.67;13.05;;;;;;;;;;10505352;28;20369;-71
2023/11/19 19:41:38;;;;;;;27.95;12.95;;;;;;;;;;10509224;28;20052;-71
2023/11/19 19:46:38;;;;;;;24.67;11.70;;;;;;;;;;10511693;28;20069;-72
2023/11/19 19:51:38;;;;;;;27.50;11.65;;;;;;;;;;10504638;28;20793;-72
2023/11/19 19:56:39;;;;;;;29.10;12.57;;;;;;;;;;10514598;28;20033;-71
2023/11/19 20:01:39;;;;;;;32.28;12.98;;;;;;;;;;10503718;28;20043;-72
2023/11/19 20:06:39;;;;;;;21.00;10.90;;;;;;;;;;10506213;28;20032;-72
2023/11/19 20:11:40;;;;;;;107.13;99.23;;;;;;;;;;10519547;28;20050;-76
2023/11/19 20:16:40;;;;;;;21.08;11.00;;;;;;;;;;10511055;28;20312;-76
2023/11/19 20:21:40;;;;;;;24.73;12.33;;;;;;;;;;10517847;28;20012;-69
2023/11/19 20:26:41;;;;;;;21.33;11.10;;;;;;;;;;10522278;28;20008;-70
2023/11/19 20:31:44;;;;;;;66.47;60.90;;;;;;;;;;10500206;28;20054;-74
2023/11/19 20:36:44;;;;;;;24.30;10.23;;;;;;;;;;10530746;28;20099;-70
2023/11/19 20:41:44;;;;;;;286.13;260.08;;;;;;;;;;10518541;28;20021;-68
2023/11/19 20:46:45;;;;;;;578.95;451.25;;;;;;;;;;10533744;28;20297;-73
2023/11/19 20:51:46;;;;;;;33.20;17.98;;;;;;;;;;10530201;28;20345;-72
2023/11/19 20:56:46;;;;;;;32.72;14.77;;;;;;;;;;10524990;28;20243;-71
2023/11/19 21:01:47;;;;;;;69.57;63.70;;;;;;;;;;10534234;28;20024;-75
2023/11/19 21:06:47;;;;;;;30.98;13.93;;;;;;;;;;10536338;28;20044;-73
2023/11/19 21:11:47;;;;;;;28.92;13.57;;;;;;;;;;10547159;28;20286;-74
2023/11/19 21:16:48;;;;;;;28.38;12.45;;;;;;;;;;10546870;28;20023;-74
2023/11/19 21:21:48;;;;;;;31.95;12.80;;;;;;;;;;10549942;28;20016;-74
2023/11/19 21:26:48;;;;;;;26.48;12.50;;;;;;;;;;10528798;28;20024;-72
2023/11/19 21:31:49;;;;;;;28.77;17.20;;;;;;;;;;10529893;28;20234;-73
2023/11/19 21:36:49;;;;;;;27.27;13.68;;;;;;;;;;10521937;28;20259;-73
2023/11/19 21:41:49;;;;;;;34.22;14.88;;;;;;;;;;10546456;28;20020;-73
2023/11/19 21:46:50;;;;;;;29.58;14.73;;;;;;;;;;10545615;28;20028;-73
2023/11/19 21:51:50;;;;;;;34.28;15.35;;;;;;;;;;10545345;28;20331;-74
2023/11/19 21:56:50;;;;;;;31.58;15.45;;;;;;;;;;10545464;28;20038;-74
2023/11/19 22:01:51;;;;;;;775.30;459.15;;;;;;;;;;10545189;28;20257;-74
2023/11/19 22:06:52;;;;;;;;;;;;;;;;;;10545461;28;20516;-74
2023/11/19 22:11:52;;;;;;;;;;;;;;;;;;10544182;28;20699;-73
2023/11/19 22:16:52;;;;;;;;;;;;;;;;;;10544932;28;20454;-72
2023/11/19 22:21:52;;;;;;;;;;;;;;;;;;10544625;28;19908;-72
2023/11/19 22:26:53;;;;;;;;;;;;;;;;;;10544625;28;19900;-73
2023/11/19 22:31:53;;;;;;;;;;;;;;;;;;10537918;28;20653;-73
2023/11/19 22:36:54;;;;;;;;;;;;;;;;;;10544005;28;19912;-73
2023/11/19 22:41:54;;;;;;;;;;;;;;;;;;10544962;28;19900;-74
2023/11/19 22:46:54;;;;;;;;;;;;;;;;;;10562737;28;20082;-73
2023/11/19 22:51:55;;;;;;;;;;;;;;;;;;10544555;28;20233;-73
2023/11/19 22:56:55;;;;;;;;;;;;;;;;;;10543573;28;20418;-73
2023/11/19 23:01:55;;;;;;;;;;;;;;;;;;10542932;28;20398;-73
2023/11/19 23:06:55;;;;;;;;;;;;;;;;;;10543280;28;20423;-73
2023/11/19 23:11:55;;;;;;;;;;;;;;;;;;10559160;28;19900;-73
2023/11/19 23:16:55;;;;;;;;;;;;;;;;;;10542612;28;19904;-72
2023/11/19 23:21:55;;;;;;;;;;;;;;;;;;10542554;28;20043;-74
2023/11/19 23:26:56;;;;;;;;;;;;;;;;;;10558164;28;19971;-72
2023/11/19 23:31:56;;;;;;;;;;;;;;;;;;10525933;28;19900;-73
2023/11/19 23:36:56;;;;;;;;;;;;;;;;;;10524695;28;19912;-73
2023/11/19 23:41:56;;;;;;;;;;;;;;;;;;10557782;28;19907;-73
2023/11/19 23:46:56;;;;;;;;;;;;;;;;;;10542214;28;19915;-73
2023/11/19 23:52:00;;;;;;;;;;;;;;;;;;10541508;28;19908;-72
2023/11/19 23:57:00;;;;;;;;;;;;;;;;;;10540881;28;19908;-72
